首页
METAR-TAF:

METAR-TAF

机场 :

Meriden-Markham Municipal Airport

梅里登, 康乃狄克州, 美国

纬度: 41-30-35N, 经度: 072-49-40W, 海拔: 31米

当前天气观测

该预报发布于25分钟前的08:53 UTC
静风
温度 -4°C
湿度 80%
气压 1035 hPa
能見度: 16.1公里
多云层高于3900英尺

METAR: KMMK 130853Z AUTO 00000KT 10SM BKN039 M04/M07 A3056 RMK AO2 SLP348 T10441067 58025

时间: 04:18 (09:18 UTC)


TAF: 丢失

超过4000个机场的气象观测和天气预报(METAR&TAF报告)。

可查询的气象台以黄色和红色小点在地图上表示。

将鼠标移到小点上方,可查看气象台名称。

然后点击查看天气观测和预报。

如需切换地图:点击带黑十字的绿色按钮放大地图;点击带横线的绿色按钮缩小地图;或者点击绿色箭头查看邻近地区的地图。


METAR-TAF: